sensor_id;sensor_type;location;lat;lon;timestamp;temperature;humidity
22635;DHT22;11484;50.858;4.384;2022-07-29T00:00:00;20.80;72.40
22635;DHT22;11484;50.858;4.384;2022-07-29T00:02:27;20.80;72.50
22635;DHT22;11484;50.858;4.384;2022-07-29T00:04:53;20.90;72.40
22635;DHT22;11484;50.858;4.384;2022-07-29T00:07:19;20.90;72.30
22635;DHT22;11484;50.858;4.384;2022-07-29T00:09:44;20.90;72.30
22635;DHT22;11484;50.858;4.384;2022-07-29T00:12:10;20.90;72.50
22635;DHT22;11484;50.858;4.384;2022-07-29T00:14:37;20.80;72.80
22635;DHT22;11484;50.858;4.384;2022-07-29T00:17:03;20.80;72.90
22635;DHT22;11484;50.858;4.384;2022-07-29T00:19:28;20.70;72.90
22635;DHT22;11484;50.858;4.384;2022-07-29T00:21:54;20.60;73.20
22635;DHT22;11484;50.858;4.384;2022-07-29T00:24:20;20.50;73.50
22635;DHT22;11484;50.858;4.384;2022-07-29T00:26:45;20.50;73.80
22635;DHT22;11484;50.858;4.384;2022-07-29T00:29:11;20.50;74.00
22635;DHT22;11484;50.858;4.384;2022-07-29T00:31:37;20.40;74.10
22635;DHT22;11484;50.858;4.384;2022-07-29T00:34:02;20.50;74.00
22635;DHT22;11484;50.858;4.384;2022-07-29T00:36:28;20.60;73.80
22635;DHT22;11484;50.858;4.384;2022-07-29T00:38:54;20.60;73.40
22635;DHT22;11484;50.858;4.384;2022-07-29T00:41:20;20.60;73.50
22635;DHT22;11484;50.858;4.384;2022-07-29T00:43:46;20.50;73.80
22635;DHT22;11484;50.858;4.384;2022-07-29T00:46:13;20.50;73.90
22635;DHT22;11484;50.858;4.384;2022-07-29T00:48:39;20.50;74.10
22635;DHT22;11484;50.858;4.384;2022-07-29T00:51:05;20.50;74.30
22635;DHT22;11484;50.858;4.384;2022-07-29T00:53:32;20.40;74.50
22635;DHT22;11484;50.858;4.384;2022-07-29T00:55:58;20.40;74.70
22635;DHT22;11484;50.858;4.384;2022-07-29T00:58:24;20.40;74.80
22635;DHT22;11484;50.858;4.384;2022-07-29T01:00:50;20.30;75.00
22635;DHT22;11484;50.858;4.384;2022-07-29T01:03:16;20.20;75.50
22635;DHT22;11484;50.858;4.384;2022-07-29T01:05:44;20.20;75.70
22635;DHT22;11484;50.858;4.384;2022-07-29T01:08:11;20.10;75.80
22635;DHT22;11484;50.858;4.384;2022-07-29T01:10:38;20.10;76.20
22635;DHT22;11484;50.858;4.384;2022-07-29T01:13:05;20.00;76.30
22635;DHT22;11484;50.858;4.384;2022-07-29T01:15:36;20.00;76.50
22635;DHT22;11484;50.858;4.384;2022-07-29T01:18:30;20.00;76.50
22635;DHT22;11484;50.858;4.384;2022-07-29T01:21:16;20.00;76.40
22635;DHT22;11484;50.858;4.384;2022-07-29T01:26:34;19.80;77.60
22635;DHT22;11484;50.858;4.384;2022-07-29T01:29:29;19.90;77.40
22635;DHT22;11484;50.858;4.384;2022-07-29T01:32:03;19.90;77.40
22635;DHT22;11484;50.858;4.384;2022-07-29T01:37:12;19.90;77.40
22635;DHT22;11484;50.858;4.384;2022-07-29T01:39:42;20.00;77.20
22635;DHT22;11484;50.858;4.384;2022-07-29T01:42:37;20.00;77.40
22635;DHT22;11484;50.858;4.384;2022-07-29T01:45:12;20.00;77.60
22635;DHT22;11484;50.858;4.384;2022-07-29T01:47:44;20.10;77.50
22635;DHT22;11484;50.858;4.384;2022-07-29T01:50:14;20.00;77.50
22635;DHT22;11484;50.858;4.384;2022-07-29T01:52:54;20.00;77.70
22635;DHT22;11484;50.858;4.384;2022-07-29T01:55:24;20.00;77.80
22635;DHT22;11484;50.858;4.384;2022-07-29T01:57:51;19.90;77.80
22635;DHT22;11484;50.858;4.384;2022-07-29T02:00:17;19.80;78.20
22635;DHT22;11484;50.858;4.384;2022-07-29T02:02:45;19.70;78.70
22635;DHT22;11484;50.858;4.384;2022-07-29T02:05:14;19.70;79.00
22635;DHT22;11484;50.858;4.384;2022-07-29T02:07:42;19.70;79.20
22635;DHT22;11484;50.858;4.384;2022-07-29T02:10:09;19.60;79.50
22635;DHT22;11484;50.858;4.384;2022-07-29T02:12:36;19.60;80.20
22635;DHT22;11484;50.858;4.384;2022-07-29T02:15:04;19.60;79.80
22635;DHT22;11484;50.858;4.384;2022-07-29T02:17:51;19.70;79.90
22635;DHT22;11484;50.858;4.384;2022-07-29T02:20:19;19.60;79.90
22635;DHT22;11484;50.858;4.384;2022-07-29T02:22:46;19.50;80.20
22635;DHT22;11484;50.858;4.384;2022-07-29T02:25:13;19.40;81.00
22635;DHT22;11484;50.858;4.384;2022-07-29T02:27:41;19.40;81.50
22635;DHT22;11484;50.858;4.384;2022-07-29T02:30:08;19.40;81.70
22635;DHT22;11484;50.858;4.384;2022-07-29T02:32:37;19.40;81.70
22635;DHT22;11484;50.858;4.384;2022-07-29T02:35:06;19.40;81.70
22635;DHT22;11484;50.858;4.384;2022-07-29T02:37:33;19.40;81.80
22635;DHT22;11484;50.858;4.384;2022-07-29T02:40:00;19.40;82.00
22635;DHT22;11484;50.858;4.384;2022-07-29T02:42:27;19.30;82.30
22635;DHT22;11484;50.858;4.384;2022-07-29T02:44:54;19.40;82.40
22635;DHT22;11484;50.858;4.384;2022-07-29T02:47:47;19.40;82.20
22635;DHT22;11484;50.858;4.384;2022-07-29T02:50:38;19.50;81.80
22635;DHT22;11484;50.858;4.384;2022-07-29T02:53:22;19.50;81.50
22635;DHT22;11484;50.858;4.384;2022-07-29T02:55:56;19.50;81.50
22635;DHT22;11484;50.858;4.384;2022-07-29T02:58:28;19.40;82.00
22635;DHT22;11484;50.858;4.384;2022-07-29T03:00:59;19.40;82.50
22635;DHT22;11484;50.858;4.384;2022-07-29T03:03:28;19.30;82.90
22635;DHT22;11484;50.858;4.384;2022-07-29T03:05:57;19.20;83.40
22635;DHT22;11484;50.858;4.384;2022-07-29T03:08:24;19.20;83.80
22635;DHT22;11484;50.858;4.384;2022-07-29T03:10:50;19.20;84.10
22635;DHT22;11484;50.858;4.384;2022-07-29T03:13:17;19.20;84.40
22635;DHT22;11484;50.858;4.384;2022-07-29T03:15:44;19.20;84.50
22635;DHT22;11484;50.858;4.384;2022-07-29T03:18:10;19.20;84.80
22635;DHT22;11484;50.858;4.384;2022-07-29T03:20:37;19.20;85.00
22635;DHT22;11484;50.858;4.384;2022-07-29T03:23:03;19.30;84.90
22635;DHT22;11484;50.858;4.384;2022-07-29T03:25:30;19.30;85.00
22635;DHT22;11484;50.858;4.384;2022-07-29T03:27:56;19.20;85.30
22635;DHT22;11484;50.858;4.384;2022-07-29T03:30:22;19.20;85.80
22635;DHT22;11484;50.858;4.384;2022-07-29T03:32:49;19.20;85.90
22635;DHT22;11484;50.858;4.384;2022-07-29T03:35:15;19.20;86.30
22635;DHT22;11484;50.858;4.384;2022-07-29T03:37:48;19.10;86.70
22635;DHT22;11484;50.858;4.384;2022-07-29T03:40:19;19.10;86.90
22635;DHT22;11484;50.858;4.384;2022-07-29T03:42:47;19.10;87.10
22635;DHT22;11484;50.858;4.384;2022-07-29T03:45:17;19.10;87.30
22635;DHT22;11484;50.858;4.384;2022-07-29T03:47:48;19.10;87.60
22635;DHT22;11484;50.858;4.384;2022-07-29T03:50:16;19.10;87.80
22635;DHT22;11484;50.858;4.384;2022-07-29T03:52:42;19.10;88.20
22635;DHT22;11484;50.858;4.384;2022-07-29T03:55:09;19.10;88.40
22635;DHT22;11484;50.858;4.384;2022-07-29T03:57:36;19.00;88.70
22635;DHT22;11484;50.858;4.384;2022-07-29T04:00:04;19.00;89.00
22635;DHT22;11484;50.858;4.384;2022-07-29T04:02:31;19.00;89.30
22635;DHT22;11484;50.858;4.384;2022-07-29T04:04:58;19.00;89.40
22635;DHT22;11484;50.858;4.384;2022-07-29T04:07:23;19.00;89.80
22635;DHT22;11484;50.858;4.384;2022-07-29T04:09:49;19.00;89.90
22635;DHT22;11484;50.858;4.384;2022-07-29T04:12:15;19.00;89.90
22635;DHT22;11484;50.858;4.384;2022-07-29T04:14:40;19.00;90.00
22635;DHT22;11484;50.858;4.384;2022-07-29T04:17:06;19.00;90.20
22635;DHT22;11484;50.858;4.384;2022-07-29T04:19:32;19.00;90.30
22635;DHT22;11484;50.858;4.384;2022-07-29T04:21:59;19.00;90.50
22635;DHT22;11484;50.858;4.384;2022-07-29T04:24:26;18.90;90.70
22635;DHT22;11484;50.858;4.384;2022-07-29T04:26:52;18.80;91.00
22635;DHT22;11484;50.858;4.384;2022-07-29T04:29:18;18.80;91.40
22635;DHT22;11484;50.858;4.384;2022-07-29T04:31:45;18.80;91.60
22635;DHT22;11484;50.858;4.384;2022-07-29T04:34:11;18.70;91.80
22635;DHT22;11484;50.858;4.384;2022-07-29T04:36:37;18.80;91.90
22635;DHT22;11484;50.858;4.384;2022-07-29T04:39:04;18.80;92.00
22635;DHT22;11484;50.858;4.384;2022-07-29T04:41:30;18.80;92.10
22635;DHT22;11484;50.858;4.384;2022-07-29T04:43:56;18.80;92.20
22635;DHT22;11484;50.858;4.384;2022-07-29T04:46:22;18.80;92.30
22635;DHT22;11484;50.858;4.384;2022-07-29T04:48:48;18.80;92.40
22635;DHT22;11484;50.858;4.384;2022-07-29T04:51:14;18.80;92.90
22635;DHT22;11484;50.858;4.384;2022-07-29T04:53:40;18.90;92.60
22635;DHT22;11484;50.858;4.384;2022-07-29T04:56:06;18.80;92.80
22635;DHT22;11484;50.858;4.384;2022-07-29T04:58:35;18.70;93.00
22635;DHT22;11484;50.858;4.384;2022-07-29T05:01:01;18.90;93.00
22635;DHT22;11484;50.858;4.384;2022-07-29T05:03:26;18.90;93.00
22635;DHT22;11484;50.858;4.384;2022-07-29T05:05:52;19.00;93.00
22635;DHT22;11484;50.858;4.384;2022-07-29T05:08:18;18.90;93.20
22635;DHT22;11484;50.858;4.384;2022-07-29T05:10:43;18.80;93.40
22635;DHT22;11484;50.858;4.384;2022-07-29T05:13:09;18.80;93.50
22635;DHT22;11484;50.858;4.384;2022-07-29T05:15:36;18.90;93.40
22635;DHT22;11484;50.858;4.384;2022-07-29T05:18:02;19.00;93.40
22635;DHT22;11484;50.858;4.384;2022-07-29T05:20:28;19.00;93.50
22635;DHT22;11484;50.858;4.384;2022-07-29T05:22:58;19.00;93.40
22635;DHT22;11484;50.858;4.384;2022-07-29T05:25:26;19.00;93.50
22635;DHT22;11484;50.858;4.384;2022-07-29T05:27:52;19.00;93.90
22635;DHT22;11484;50.858;4.384;2022-07-29T05:30:19;19.00;93.50
22635;DHT22;11484;50.858;4.384;2022-07-29T05:32:45;19.10;93.30
22635;DHT22;11484;50.858;4.384;2022-07-29T05:35:11;19.20;93.20
22635;DHT22;11484;50.858;4.384;2022-07-29T05:37:37;19.30;93.00
22635;DHT22;11484;50.858;4.384;2022-07-29T05:40:03;19.40;93.10
22635;DHT22;11484;50.858;4.384;2022-07-29T05:42:29;19.50;92.90
22635;DHT22;11484;50.858;4.384;2022-07-29T05:44:55;19.60;92.40
22635;DHT22;11484;50.858;4.384;2022-07-29T05:47:21;19.70;92.30
22635;DHT22;11484;50.858;4.384;2022-07-29T05:49:46;19.90;91.90
22635;DHT22;11484;50.858;4.384;2022-07-29T05:52:12;19.90;91.70
22635;DHT22;11484;50.858;4.384;2022-07-29T05:54:41;20.00;91.70
22635;DHT22;11484;50.858;4.384;2022-07-29T05:57:14;20.00;91.70
22635;DHT22;11484;50.858;4.384;2022-07-29T05:59:40;20.00;91.50
22635;DHT22;11484;50.858;4.384;2022-07-29T06:02:06;19.90;91.40
22635;DHT22;11484;50.858;4.384;2022-07-29T06:04:32;19.80;91.60
22635;DHT22;11484;50.858;4.384;2022-07-29T06:06:58;19.70;91.80
22635;DHT22;11484;50.858;4.384;2022-07-29T06:09:24;19.70;92.00
22635;DHT22;11484;50.858;4.384;2022-07-29T06:11:51;19.70;92.20
22635;DHT22;11484;50.858;4.384;2022-07-29T06:14:17;19.70;92.10
22635;DHT22;11484;50.858;4.384;2022-07-29T06:16:44;19.70;92.30
22635;DHT22;11484;50.858;4.384;2022-07-29T06:19:12;19.80;92.20
22635;DHT22;11484;50.858;4.384;2022-07-29T06:21:44;19.90;91.90
22635;DHT22;11484;50.858;4.384;2022-07-29T06:24:14;20.10;91.90
22635;DHT22;11484;50.858;4.384;2022-07-29T06:26:42;20.40;91.30
22635;DHT22;11484;50.858;4.384;2022-07-29T06:29:08;21.10;90.30
22635;DHT22;11484;50.858;4.384;2022-07-29T06:31:36;22.00;86.30
22635;DHT22;11484;50.858;4.384;2022-07-29T06:34:02;23.30;83.10
22635;DHT22;11484;50.858;4.384;2022-07-29T06:36:27;24.80;76.50
22635;DHT22;11484;50.858;4.384;2022-07-29T06:38:54;25.90;70.10
22635;DHT22;11484;50.858;4.384;2022-07-29T06:41:20;26.70;66.40
22635;DHT22;11484;50.858;4.384;2022-07-29T06:43:46;27.80;61.90
22635;DHT22;11484;50.858;4.384;2022-07-29T06:46:14;28.20;59.30
22635;DHT22;11484;50.858;4.384;2022-07-29T06:48:40;28.60;57.70
22635;DHT22;11484;50.858;4.384;2022-07-29T06:51:08;29.40;56.20
22635;DHT22;11484;50.858;4.384;2022-07-29T06:53:35;30.00;54.50
22635;DHT22;11484;50.858;4.384;2022-07-29T06:56:05;30.30;53.10
22635;DHT22;11484;50.858;4.384;2022-07-29T06:58:33;30.60;52.40
22635;DHT22;11484;50.858;4.384;2022-07-29T07:01:03;31.10;51.60
22635;DHT22;11484;50.858;4.384;2022-07-29T07:03:29;31.40;50.40
22635;DHT22;11484;50.858;4.384;2022-07-29T07:05:55;32.10;49.80
22635;DHT22;11484;50.858;4.384;2022-07-29T07:08:22;32.00;48.60
22635;DHT22;11484;50.858;4.384;2022-07-29T07:10:49;31.90;48.70
22635;DHT22;11484;50.858;4.384;2022-07-29T07:13:15;31.10;49.50
22635;DHT22;11484;50.858;4.384;2022-07-29T07:15:43;30.60;50.20
22635;DHT22;11484;50.858;4.384;2022-07-29T07:18:08;30.10;51.60
22635;DHT22;11484;50.858;4.384;2022-07-29T07:20:35;29.30;52.00
22635;DHT22;11484;50.858;4.384;2022-07-29T07:23:07;28.80;53.50
22635;DHT22;11484;50.858;4.384;2022-07-29T07:25:34;28.30;54.30
22635;DHT22;11484;50.858;4.384;2022-07-29T07:28:00;28.00;54.90
22635;DHT22;11484;50.858;4.384;2022-07-29T07:30:26;27.50;55.80
22635;DHT22;11484;50.858;4.384;2022-07-29T07:32:54;27.20;57.00
22635;DHT22;11484;50.858;4.384;2022-07-29T07:35:21;26.90;57.50
22635;DHT22;11484;50.858;4.384;2022-07-29T07:37:47;27.20;57.90
22635;DHT22;11484;50.858;4.384;2022-07-29T07:40:13;27.50;57.00
22635;DHT22;11484;50.858;4.384;2022-07-29T07:42:40;27.90;56.80
22635;DHT22;11484;50.858;4.384;2022-07-29T07:45:07;28.60;55.20
22635;DHT22;11484;50.858;4.384;2022-07-29T07:47:35;29.40;54.00
22635;DHT22;11484;50.858;4.384;2022-07-29T07:50:02;30.00;52.60
22635;DHT22;11484;50.858;4.384;2022-07-29T07:52:27;30.30;52.50
22635;DHT22;11484;50.858;4.384;2022-07-29T07:54:53;31.50;50.80
22635;DHT22;11484;50.858;4.384;2022-07-29T07:57:19;32.50;49.10
22635;DHT22;11484;50.858;4.384;2022-07-29T07:59:45;33.10;47.90
22635;DHT22;11484;50.858;4.384;2022-07-29T08:02:11;33.70;46.90
22635;DHT22;11484;50.858;4.384;2022-07-29T08:04:36;34.00;45.90
22635;DHT22;11484;50.858;4.384;2022-07-29T08:07:02;34.10;45.40
22635;DHT22;11484;50.858;4.384;2022-07-29T08:09:28;34.40;45.10
22635;DHT22;11484;50.858;4.384;2022-07-29T08:11:55;35.10;44.20
22635;DHT22;11484;50.858;4.384;2022-07-29T08:14:21;35.60;43.20
22635;DHT22;11484;50.858;4.384;2022-07-29T08:16:47;35.90;42.60
22635;DHT22;11484;50.858;4.384;2022-07-29T08:19:13;36.20;42.00
22635;DHT22;11484;50.858;4.384;2022-07-29T08:21:39;36.40;41.60
22635;DHT22;11484;50.858;4.384;2022-07-29T08:24:05;36.20;41.00
22635;DHT22;11484;50.858;4.384;2022-07-29T08:26:49;36.30;41.10
22635;DHT22;11484;50.858;4.384;2022-07-29T08:29:15;36.70;40.70
22635;DHT22;11484;50.858;4.384;2022-07-29T08:31:42;37.00;39.70
22635;DHT22;11484;50.858;4.384;2022-07-29T08:34:08;37.40;39.30
22635;DHT22;11484;50.858;4.384;2022-07-29T08:36:34;37.50;39.40
22635;DHT22;11484;50.858;4.384;2022-07-29T08:39:00;37.40;39.40
22635;DHT22;11484;50.858;4.384;2022-07-29T08:41:27;37.80;39.30
22635;DHT22;11484;50.858;4.384;2022-07-29T08:43:53;38.10;38.20
22635;DHT22;11484;50.858;4.384;2022-07-29T08:46:20;37.90;37.90
22635;DHT22;11484;50.858;4.384;2022-07-29T08:48:46;37.80;38.00
22635;DHT22;11484;50.858;4.384;2022-07-29T08:51:19;38.00;38.00
22635;DHT22;11484;50.858;4.384;2022-07-29T08:53:49;37.80;38.20
22635;DHT22;11484;50.858;4.384;2022-07-29T08:56:16;38.40;37.40
22635;DHT22;11484;50.858;4.384;2022-07-29T08:58:45;38.70;37.10
22635;DHT22;11484;50.858;4.384;2022-07-29T09:01:13;38.00;37.30
22635;DHT22;11484;50.858;4.384;2022-07-29T09:03:40;37.80;37.50
22635;DHT22;11484;50.858;4.384;2022-07-29T09:06:07;37.40;37.70
22635;DHT22;11484;50.858;4.384;2022-07-29T09:08:34;37.60;37.70
22635;DHT22;11484;50.858;4.384;2022-07-29T09:11:02;37.40;38.10
22635;DHT22;11484;50.858;4.384;2022-07-29T09:13:28;37.70;37.90
22635;DHT22;11484;50.858;4.384;2022-07-29T09:15:54;37.80;36.70
22635;DHT22;11484;50.858;4.384;2022-07-29T09:18:42;37.60;36.30
22635;DHT22;11484;50.858;4.384;2022-07-29T09:21:11;37.70;36.00
22635;DHT22;11484;50.858;4.384;2022-07-29T09:24:09;37.60;36.30
22635;DHT22;11484;50.858;4.384;2022-07-29T09:26:39;37.60;36.70
22635;DHT22;11484;50.858;4.384;2022-07-29T09:29:17;37.50;36.50
22635;DHT22;11484;50.858;4.384;2022-07-29T09:31:45;37.60;36.20
22635;DHT22;11484;50.858;4.384;2022-07-29T09:34:13;38.10;36.00
22635;DHT22;11484;50.858;4.384;2022-07-29T09:36:44;38.00;35.30
22635;DHT22;11484;50.858;4.384;2022-07-29T09:39:10;38.70;35.40
22635;DHT22;11484;50.858;4.384;2022-07-29T09:41:49;38.40;35.20
22635;DHT22;11484;50.858;4.384;2022-07-29T09:44:15;38.80;35.10
22635;DHT22;11484;50.858;4.384;2022-07-29T09:47:00;38.50;35.30
22635;DHT22;11484;50.858;4.384;2022-07-29T09:49:49;38.50;35.50
22635;DHT22;11484;50.858;4.384;2022-07-29T09:52:16;38.20;35.50
22635;DHT22;11484;50.858;4.384;2022-07-29T09:54:42;38.20;35.90
22635;DHT22;11484;50.858;4.384;2022-07-29T09:57:09;38.40;35.80
22635;DHT22;11484;50.858;4.384;2022-07-29T09:59:58;38.00;35.60
22635;DHT22;11484;50.858;4.384;2022-07-29T10:02:32;38.00;35.60
22635;DHT22;11484;50.858;4.384;2022-07-29T10:04:58;37.60;35.80
22635;DHT22;11484;50.858;4.384;2022-07-29T10:07:25;37.30;36.00
22635;DHT22;11484;50.858;4.384;2022-07-29T10:09:55;37.10;36.40
22635;DHT22;11484;50.858;4.384;2022-07-29T10:12:21;37.10;37.00
22635;DHT22;11484;50.858;4.384;2022-07-29T10:14:48;36.80;36.80
22635;DHT22;11484;50.858;4.384;2022-07-29T10:17:16;36.30;36.90
22635;DHT22;11484;50.858;4.384;2022-07-29T10:19:42;35.90;37.10
22635;DHT22;11484;50.858;4.384;2022-07-29T10:22:09;36.00;37.30
22635;DHT22;11484;50.858;4.384;2022-07-29T10:24:37;36.00;37.70
22635;DHT22;11484;50.858;4.384;2022-07-29T10:27:04;35.50;37.80
22635;DHT22;11484;50.858;4.384;2022-07-29T10:29:30;35.50;37.50
22635;DHT22;11484;50.858;4.384;2022-07-29T10:35:19;34.90;38.00
22635;DHT22;11484;50.858;4.384;2022-07-29T10:41:11;34.20;38.60
22635;DHT22;11484;50.858;4.384;2022-07-29T10:44:08;33.70;39.20
22635;DHT22;11484;50.858;4.384;2022-07-29T10:46:39;33.20;39.40
22635;DHT22;11484;50.858;4.384;2022-07-29T10:52:07;32.60;40.50
22635;DHT22;11484;50.858;4.384;2022-07-29T10:57:24;31.80;42.50
22635;DHT22;11484;50.858;4.384;2022-07-29T11:05:06;31.20;41.60
22635;DHT22;11484;50.858;4.384;2022-07-29T11:07:40;30.90;42.30
22635;DHT22;11484;50.858;4.384;2022-07-29T11:10:24;30.30;43.40
22635;DHT22;11484;50.858;4.384;2022-07-29T11:12:50;30.00;44.60
22635;DHT22;11484;50.858;4.384;2022-07-29T11:15:21;29.80;45.40
22635;DHT22;11484;50.858;4.384;2022-07-29T11:20:45;29.40;45.60
22635;DHT22;11484;50.858;4.384;2022-07-29T11:23:28;29.50;45.80
22635;DHT22;11484;50.858;4.384;2022-07-29T11:31:37;29.40;45.60
22635;DHT22;11484;50.858;4.384;2022-07-29T11:39:38;29.20;45.50
22635;DHT22;11484;50.858;4.384;2022-07-29T11:44:56;29.20;45.00
22635;DHT22;11484;50.858;4.384;2022-07-29T11:47:22;29.00;45.40
22635;DHT22;11484;50.858;4.384;2022-07-29T11:49:50;28.60;45.90
22635;DHT22;11484;50.858;4.384;2022-07-29T11:52:20;28.40;47.00
22635;DHT22;11484;50.858;4.384;2022-07-29T11:54:50;28.30;46.80
22635;DHT22;11484;50.858;4.384;2022-07-29T11:57:17;28.20;46.90
22635;DHT22;11484;50.858;4.384;2022-07-29T11:59:44;28.20;47.20
22635;DHT22;11484;50.858;4.384;2022-07-29T12:02:11;28.30;47.50
22635;DHT22;11484;50.858;4.384;2022-07-29T12:04:52;28.60;47.20
22635;DHT22;11484;50.858;4.384;2022-07-29T12:07:33;29.00;45.50
22635;DHT22;11484;50.858;4.384;2022-07-29T12:09:59;29.20;45.00
22635;DHT22;11484;50.858;4.384;2022-07-29T12:12:26;29.40;43.90
22635;DHT22;11484;50.858;4.384;2022-07-29T12:14:53;29.40;43.90
22635;DHT22;11484;50.858;4.384;2022-07-29T12:17:28;29.50;44.60
22635;DHT22;11484;50.858;4.384;2022-07-29T12:20:03;29.40;44.60
22635;DHT22;11484;50.858;4.384;2022-07-29T12:22:35;29.40;43.90
22635;DHT22;11484;50.858;4.384;2022-07-29T12:25:13;29.50;44.10
22635;DHT22;11484;50.858;4.384;2022-07-29T12:27:42;29.40;44.30
22635;DHT22;11484;50.858;4.384;2022-07-29T12:30:16;29.40;44.60
22635;DHT22;11484;50.858;4.384;2022-07-29T12:32:45;29.50;44.80
22635;DHT22;11484;50.858;4.384;2022-07-29T12:35:15;29.50;44.70
22635;DHT22;11484;50.858;4.384;2022-07-29T12:37:47;29.40;44.90
22635;DHT22;11484;50.858;4.384;2022-07-29T12:40:15;29.30;44.60
22635;DHT22;11484;50.858;4.384;2022-07-29T12:43:09;29.50;44.30
22635;DHT22;11484;50.858;4.384;2022-07-29T12:45:35;29.50;43.80
22635;DHT22;11484;50.858;4.384;2022-07-29T12:48:02;29.50;44.40
22635;DHT22;11484;50.858;4.384;2022-07-29T12:50:28;29.40;43.80
22635;DHT22;11484;50.858;4.384;2022-07-29T12:52:54;29.30;44.10
22635;DHT22;11484;50.858;4.384;2022-07-29T12:58:05;29.10;43.70
22635;DHT22;11484;50.858;4.384;2022-07-29T13:00:30;29.10;44.70
22635;DHT22;11484;50.858;4.384;2022-07-29T13:02:58;28.80;44.90
22635;DHT22;11484;50.858;4.384;2022-07-29T13:05:38;28.80;45.70
22635;DHT22;11484;50.858;4.384;2022-07-29T13:08:14;28.90;46.00
22635;DHT22;11484;50.858;4.384;2022-07-29T13:10:40;28.80;45.70
22635;DHT22;11484;50.858;4.384;2022-07-29T13:15:42;28.70;45.80
22635;DHT22;11484;50.858;4.384;2022-07-29T13:18:31;28.70;45.70
22635;DHT22;11484;50.858;4.384;2022-07-29T13:21:14;28.50;45.90
22635;DHT22;11484;50.858;4.384;2022-07-29T13:23:40;28.50;46.20
22635;DHT22;11484;50.858;4.384;2022-07-29T13:26:07;28.40;46.20
22635;DHT22;11484;50.858;4.384;2022-07-29T13:28:33;28.50;46.80
22635;DHT22;11484;50.858;4.384;2022-07-29T13:31:01;28.50;45.90
22635;DHT22;11484;50.858;4.384;2022-07-29T13:33:26;28.50;46.20
22635;DHT22;11484;50.858;4.384;2022-07-29T13:35:52;28.60;46.10
22635;DHT22;11484;50.858;4.384;2022-07-29T13:38:19;28.80;46.10
22635;DHT22;11484;50.858;4.384;2022-07-29T13:40:45;28.90;45.70
22635;DHT22;11484;50.858;4.384;2022-07-29T13:43:11;28.80;45.40
22635;DHT22;11484;50.858;4.384;2022-07-29T13:45:37;28.80;45.10
22635;DHT22;11484;50.858;4.384;2022-07-29T13:48:03;28.70;46.10
22635;DHT22;11484;50.858;4.384;2022-07-29T13:50:29;28.80;46.20
22635;DHT22;11484;50.858;4.384;2022-07-29T13:52:55;28.70;46.00
22635;DHT22;11484;50.858;4.384;2022-07-29T13:55:20;28.80;46.30
22635;DHT22;11484;50.858;4.384;2022-07-29T13:57:46;28.80;46.40
22635;DHT22;11484;50.858;4.384;2022-07-29T14:00:13;28.70;46.10
22635;DHT22;11484;50.858;4.384;2022-07-29T14:02:41;28.60;46.10
22635;DHT22;11484;50.858;4.384;2022-07-29T14:05:08;28.50;45.30
22635;DHT22;11484;50.858;4.384;2022-07-29T14:07:35;28.60;45.70
22635;DHT22;11484;50.858;4.384;2022-07-29T14:10:02;28.50;45.40
22635;DHT22;11484;50.858;4.384;2022-07-29T14:12:28;28.40;45.40
22635;DHT22;11484;50.858;4.384;2022-07-29T14:14:53;28.20;46.00
22635;DHT22;11484;50.858;4.384;2022-07-29T14:17:19;28.00;46.20
22635;DHT22;11484;50.858;4.384;2022-07-29T14:19:45;28.10;45.90
22635;DHT22;11484;50.858;4.384;2022-07-29T14:22:11;28.00;45.70
22635;DHT22;11484;50.858;4.384;2022-07-29T14:24:36;28.00;46.10
22635;DHT22;11484;50.858;4.384;2022-07-29T14:27:03;27.90;46.70
22635;DHT22;11484;50.858;4.384;2022-07-29T14:29:29;27.90;46.70
22635;DHT22;11484;50.858;4.384;2022-07-29T14:31:55;27.90;47.40
22635;DHT22;11484;50.858;4.384;2022-07-29T14:34:23;28.00;47.20
22635;DHT22;11484;50.858;4.384;2022-07-29T14:36:49;27.80;46.60
22635;DHT22;11484;50.858;4.384;2022-07-29T14:39:15;27.80;46.30
22635;DHT22;11484;50.858;4.384;2022-07-29T14:41:42;27.70;46.30
22635;DHT22;11484;50.858;4.384;2022-07-29T14:44:07;27.80;46.80
22635;DHT22;11484;50.858;4.384;2022-07-29T14:46:33;27.90;46.80
22635;DHT22;11484;50.858;4.384;2022-07-29T14:48:59;27.90;46.90
22635;DHT22;11484;50.858;4.384;2022-07-29T14:51:25;27.90;47.10
22635;DHT22;11484;50.858;4.384;2022-07-29T14:53:51;27.90;47.30
22635;DHT22;11484;50.858;4.384;2022-07-29T14:56:17;27.80;47.40
22635;DHT22;11484;50.858;4.384;2022-07-29T14:58:43;27.80;47.70
22635;DHT22;11484;50.858;4.384;2022-07-29T15:01:09;27.80;47.80
22635;DHT22;11484;50.858;4.384;2022-07-29T15:03:36;27.80;47.70
22635;DHT22;11484;50.858;4.384;2022-07-29T15:06:01;27.80;47.50
22635;DHT22;11484;50.858;4.384;2022-07-29T15:08:27;27.70;47.20
22635;DHT22;11484;50.858;4.384;2022-07-29T15:10:56;27.70;47.10
22635;DHT22;11484;50.858;4.384;2022-07-29T15:13:26;27.70;47.80
22635;DHT22;11484;50.858;4.384;2022-07-29T15:15:52;27.60;47.80
22635;DHT22;11484;50.858;4.384;2022-07-29T15:18:18;27.50;48.00
22635;DHT22;11484;50.858;4.384;2022-07-29T15:20:44;27.50;48.30
22635;DHT22;11484;50.858;4.384;2022-07-29T15:23:12;27.50;48.40
22635;DHT22;11484;50.858;4.384;2022-07-29T15:25:39;27.50;48.50
22635;DHT22;11484;50.858;4.384;2022-07-29T15:28:05;27.40;48.20
22635;DHT22;11484;50.858;4.384;2022-07-29T15:30:34;27.40;48.60
22635;DHT22;11484;50.858;4.384;2022-07-29T15:33:02;27.30;49.20
22635;DHT22;11484;50.858;4.384;2022-07-29T15:35:28;27.30;48.70
22635;DHT22;11484;50.858;4.384;2022-07-29T15:37:54;27.40;48.40
22635;DHT22;11484;50.858;4.384;2022-07-29T15:40:20;27.50;47.90
22635;DHT22;11484;50.858;4.384;2022-07-29T15:42:45;27.50;48.10
22635;DHT22;11484;50.858;4.384;2022-07-29T15:45:11;27.50;47.60
22635;DHT22;11484;50.858;4.384;2022-07-29T15:47:37;27.40;47.30
22635;DHT22;11484;50.858;4.384;2022-07-29T15:50:03;27.50;46.50
22635;DHT22;11484;50.858;4.384;2022-07-29T15:52:29;27.60;47.00
22635;DHT22;11484;50.858;4.384;2022-07-29T15:54:55;27.70;47.30
22635;DHT22;11484;50.858;4.384;2022-07-29T15:57:22;27.70;47.60
22635;DHT22;11484;50.858;4.384;2022-07-29T15:59:48;27.80;47.50
22635;DHT22;11484;50.858;4.384;2022-07-29T16:02:14;27.80;47.40
22635;DHT22;11484;50.858;4.384;2022-07-29T16:04:40;27.70;46.90
22635;DHT22;11484;50.858;4.384;2022-07-29T16:07:06;27.80;47.20
22635;DHT22;11484;50.858;4.384;2022-07-29T16:09:32;27.80;47.10
22635;DHT22;11484;50.858;4.384;2022-07-29T16:11:57;27.80;47.10
22635;DHT22;11484;50.858;4.384;2022-07-29T16:14:23;27.70;47.20
22635;DHT22;11484;50.858;4.384;2022-07-29T16:16:49;27.70;46.80
22635;DHT22;11484;50.858;4.384;2022-07-29T16:19:15;27.70;46.40
22635;DHT22;11484;50.858;4.384;2022-07-29T16:21:41;27.70;47.00